Time;durP1;ratioP1;P1;durP2;ratioP2;P2;SDS_P1;SDS_P2;PMS_P1;PMS_P2;Temp;Humidity;BMP_temperature;BMP_pressure;BME280_temperature;BME280_humidity;BME280_pressure;Samples;Min_cycle;Max_cycle;Signal;HPM_P1;HPM_P2
2022/05/31 00:01:45;;;;;;;1.55;1.10;;;;;;;14.45;73.35;98662.59;5113421;28;20044;-60
2022/05/31 00:04:31;;;;;;;1.40;0.77;;;;;;;14.93;73.53;98659.44;5114470;28;20031;-61
2022/05/31 00:07:17;;;;;;;1.90;0.75;;;;;;;15.13;71.31;98661.13;5094403;28;20050;-62
2022/05/31 00:10:04;;;;;;;2.03;0.75;;;;;;;15.34;71.36;98668.06;5096863;28;20051;-62
2022/05/31 00:12:49;;;;;;;1.50;0.98;;;;;;;14.85;70.62;98668.03;5108205;28;20039;-61
2022/05/31 00:15:34;;;;;;;1.02;0.80;;;;;;;14.46;74.95;98668.72;5096872;28;20031;-62
2022/05/31 00:18:19;;;;;;;1.65;1.00;;;;;;;14.37;74.30;98673.81;5096002;28;20452;-62
2022/05/31 00:21:06;;;;;;;1.20;0.77;;;;;;;14.60;75.60;98675.41;5108108;28;20047;-62
2022/05/31 00:23:50;;;;;;;1.27;0.95;;;;;;;14.77;73.58;98677.41;5117303;28;20040;-62
2022/05/31 00:26:38;;;;;;;2.70;0.95;;;;;;;14.93;71.93;98668.19;5095578;28;20539;-61
2022/05/31 00:29:23;;;;;;;2.17;0.70;;;;;;;14.93;72.42;98673.47;5109881;28;20043;-62
2022/05/31 00:32:11;;;;;;;1.30;0.77;;;;;;;14.72;72.65;98666.44;5113032;28;20035;-61
2022/05/31 00:34:59;;;;;;;1.45;0.90;;;;;;;14.36;73.75;98672.13;5111104;28;20335;-62
2022/05/31 00:37:45;;;;;;;1.73;1.05;;;;;;;14.25;73.71;98677.47;5104845;28;20067;-62
2022/05/31 00:40:33;;;;;;;0.98;0.75;;;;;;;14.77;73.78;98673.97;5112798;28;20046;-61
2022/05/31 00:43:22;;;;;;;1.52;0.80;;;;;;;15.06;72.18;98678.50;5113821;28;20466;-61
2022/05/31 00:46:07;;;;;;;1.90;1.15;;;;;;;15.44;70.50;98673.38;5087590;28;20040;-62
2022/05/31 00:48:57;;;;;;;1.48;0.90;;;;;;;15.21;70.94;98678.91;5095526;28;20379;-62
2022/05/31 00:51:50;;;;;;;3.50;1.30;;;;;;;14.34;73.75;98678.50;5092387;28;20479;-62
2022/05/31 00:54:42;;;;;;;1.95;1.15;;;;;;;14.02;74.71;98678.47;5094593;28;20095;-62
2022/05/31 00:57:32;;;;;;;1.52;0.88;;;;;;;13.62;77.53;98689.72;5092719;28;20086;-62
2022/05/31 01:00:18;;;;;;;2.30;1.08;;;;;;;13.49;78.49;98697.75;5092577;28;20036;-62
2022/05/31 01:03:04;;;;;;;2.38;1.55;;;;;;;13.35;78.81;98704.97;5093316;28;20097;-61
2022/05/31 01:05:49;;;;;;;1.90;1.10;;;;;;;13.83;78.70;98702.06;5093318;28;20435;-62
2022/05/31 01:08:35;;;;;;;1.08;0.82;;;;;;;14.33;75.79;98693.47;5092575;28;20085;-62
2022/05/31 01:11:57;;;;;;;2.08;1.25;;;;;;;13.58;76.68;98706.72;5109788;28;20358;-62
2022/05/31 01:14:47;;;;;;;1.52;0.95;;;;;;;13.86;79.01;98704.44;5104743;28;20043;-62
2022/05/31 01:17:50;;;;;;;3.42;0.98;;;;;;;14.07;76.17;98714.16;5104223;28;20088;-62
2022/05/31 01:20:45;;;;;;;1.52;1.00;;;;;;;13.52;78.71;98716.78;5100880;28;20118;-63
2022/05/31 01:23:43;;;;;;;3.22;1.38;;;;;;;13.01;81.86;98716.41;5112093;28;20036;-63
2022/05/31 01:26:50;;;;;;;1.58;1.10;;;;;;;13.84;80.78;98709.81;5097504;28;20043;-62
2022/05/31 01:29:38;;;;;;;2.03;1.20;;;;;;;14.27;75.72;98704.53;5113241;28;20035;-63
2022/05/31 01:32:23;;;;;;;4.45;1.20;;;;;;;13.91;79.39;98703.09;5099999;28;20035;-62
2022/05/31 01:35:23;;;;;;;1.58;1.10;;;;;;;14.41;76.77;98704.19;5093651;28;20062;-62
2022/05/31 01:38:17;;;;;;;2.20;1.25;;;;;;;14.22;76.20;98698.81;5100490;28;20066;-62
2022/05/31 01:41:13;;;;;;;1.52;1.15;;;;;;;14.30;75.88;98699.00;5120300;27;20046;-62
2022/05/31 01:44:02;;;;;;;1.73;1.27;;;;;;;14.24;76.29;98700.38;5105453;28;20082;-62
2022/05/31 01:46:51;;;;;;;1.75;1.13;;;;;;;14.02;76.67;98710.09;5105947;28;20057;-63
2022/05/31 01:49:39;;;;;;;2.45;1.13;;;;;;;14.10;78.04;98698.09;5132153;27;20040;-62
2022/05/31 01:52:26;;;;;;;2.42;1.13;;;;;;;14.84;74.52;98703.25;5091716;28;20375;-62
2022/05/31 01:55:12;;;;;;;1.60;1.27;;;;;;;14.87;74.15;98701.19;5091813;28;20058;-62
2022/05/31 01:58:02;;;;;;;1.98;1.42;;;;;;;14.37;74.68;98712.50;5114803;27;20042;-63
2022/05/31 02:00:48;;;;;;;2.03;1.40;;;;;;;13.49;78.97;98703.84;5100052;28;20114;-63
2022/05/31 02:03:33;;;;;;;2.67;1.10;;;;;;;13.78;80.76;98698.00;5105156;28;20043;-63
2022/05/31 02:06:35;;;;;;;2.03;1.38;;;;;;;13.85;78.05;98700.13;5091643;28;20055;-62
2022/05/31 02:09:20;;;;;;;;;;;;;;;13.46;79.52;98696.22;5104945;28;20057;-63
2022/05/31 02:12:08;;;;;;;2.80;1.80;;;;;;;13.70;79.26;98691.72;5101859;28;19916;-62
2022/05/31 02:14:56;;;;;;;1.98;1.63;;;;;;;13.56;80.38;98696.34;5123582;28;20032;-62
2022/05/31 02:17:42;;;;;;;2.88;1.55;;;;;;;13.41;80.32;98704.50;5111348;28;20042;-62
2022/05/31 02:20:47;;;;;;;2.97;1.98;;;;;;;12.86;82.82;98697.44;5111278;28;20036;-62
2022/05/31 02:23:32;;;;;;;3.25;1.42;;;;;;;13.13;84.24;98700.63;5097030;28;20036;-62
2022/05/31 02:26:18;;;;;;;4.38;1.60;;;;;;;13.77;80.80;98698.16;5090458;28;20391;-62
2022/05/31 02:29:03;;;;;;;2.75;1.30;;;;;;;14.25;77.80;98703.81;5108339;28;20097;-62
2022/05/31 02:31:52;;;;;;;3.83;1.45;;;;;;;14.68;75.72;98701.94;5119653;27;20036;-63
2022/05/31 02:34:40;;;;;;;2.00;1.27;;;;;;;14.98;73.51;98699.44;5090970;28;20379;-62
2022/05/31 02:37:25;;;;;;;2.25;1.50;;;;;;;14.32;75.86;98699.72;5091468;28;20475;-62
2022/05/31 02:40:11;;;;;;;4.65;2.13;;;;;;;13.69;76.43;98703.22;5101422;28;20067;-62
2022/05/31 02:42:55;;;;;;;3.78;1.77;;;;;;;13.47;78.12;98711.03;5094560;28;20047;-62
2022/05/31 02:45:41;;;;;;;1.90;1.45;;;;;;;13.52;79.51;98705.44;5105883;28;20447;-62
2022/05/31 02:48:26;;;;;;;2.95;1.88;;;;;;;13.22;79.46;98707.75;5111358;28;20048;-62
2022/05/31 02:51:11;;;;;;;3.05;1.25;;;;;;;13.50;79.29;98705.53;5092340;28;20036;-63
2022/05/31 02:53:56;;;;;;;3.25;2.00;;;;;;;13.01;80.57;98713.78;5090735;28;20058;-61
2022/05/31 02:56:57;;;;;;;3.88;2.00;;;;;;;13.87;77.13;98716.66;5099265;28;20146;-61
2022/05/31 03:00:03;;;;;;;2.75;2.00;;;;;;;13.30;80.12;98722.94;5094925;28;20040;-62
2022/05/31 03:03:20;;;;;;;4.20;1.83;;;;;;;14.29;77.31;98723.69;5087474;28;20055;-63
2022/05/31 03:06:41;;;;;;;2.22;1.50;;;;;;;14.55;74.90;98718.00;5096898;28;20406;-65
2022/05/31 03:09:31;;;;;;;2.97;1.45;;;;;;;15.08;72.64;98715.28;5091058;28;20036;-62
2022/05/31 03:12:19;;;;;;;2.47;2.00;;;;;;;15.31;70.83;98725.59;5108073;28;20032;-61
2022/05/31 03:15:09;;;;;;;1.95;1.58;;;;;;;14.27;75.21;98734.38;5110874;28;20043;-62
2022/05/31 03:18:05;;;;;;;3.13;1.55;;;;;;;14.91;73.93;98733.41;5101860;28;20080;-61
2022/05/31 03:20:54;;;;;;;2.00;1.50;;;;;;;14.75;71.34;98732.06;5092466;28;20047;-61
2022/05/31 03:23:46;;;;;;;1.73;1.30;;;;;;;14.41;75.07;98729.72;5096832;28;20040;-61
2022/05/31 03:26:32;;;;;;;2.10;1.00;;;;;;;14.84;73.82;98721.72;5092871;28;20040;-62
2022/05/31 03:29:17;;;;;;;2.53;1.83;;;;;;;13.85;74.04;98727.31;5089727;28;20032;-62
2022/05/31 03:32:05;;;;;;;2.67;1.25;;;;;;;13.49;78.72;98726.69;5091804;28;20486;-62
2022/05/31 03:34:51;;;;;;;3.15;1.40;;;;;;;13.12;79.75;98733.16;5095975;28;20355;-62
2022/05/31 03:37:41;;;;;;;2.25;1.60;;;;;;;12.99;78.58;98736.72;5127019;27;20505;-62
2022/05/31 03:40:58;;;;;;;2.55;1.17;;;;;;;14.05;76.34;98735.34;5103178;28;20411;-63
2022/05/31 03:43:58;;;;;;;2.33;1.40;;;;;;;14.65;73.55;98742.59;5081725;28;20032;-62
2022/05/31 03:47:03;;;;;;;2.53;1.40;;;;;;;14.12;75.14;98746.19;5104363;28;20040;-62
2022/05/31 03:50:28;;;;;;;4.80;2.58;;;;;;;13.00;77.62;98748.94;5049034;28;20066;-62
2022/05/31 03:53:14;;;;;;;4.88;2.90;;;;;;;12.67;80.64;98750.63;5037355;28;20080;-61
2022/05/31 03:56:12;;;;;;;3.53;2.25;;;;;;;12.53;84.56;98747.25;5099735;28;20498;-63
2022/05/31 03:58:57;;;;;;;7.18;3.45;;;;;;;12.45;81.90;98752.28;5096173;28;20059;-61
2022/05/31 04:01:43;;;;;;;5.63;2.50;;;;;;;12.31;85.61;98746.28;5090600;28;20047;-61
2022/05/31 04:04:28;;;;;;;7.70;4.53;;;;;;;11.87;88.27;98753.91;5094742;28;20109;-62
2022/05/31 04:07:12;;;;;;;6.88;2.95;;;;;;;12.20;90.55;98759.41;5096038;28;20048;-61
2022/05/31 04:09:58;;;;;;;4.82;2.90;;;;;;;12.30;88.07;98749.88;5096497;28;20129;-62
2022/05/31 04:12:44;;;;;;;3.38;2.20;;;;;;;11.92;90.27;98758.81;5098382;28;20064;-62
2022/05/31 04:15:33;;;;;;;3.67;2.10;;;;;;;12.06;90.94;98758.63;5096334;28;20086;-62
2022/05/31 04:18:17;;;;;;;5.32;2.53;;;;;;;12.60;87.69;98763.38;5094421;28;20036;-62
2022/05/31 04:21:06;;;;;;;3.05;1.98;;;;;;;13.26;83.30;98768.84;5127435;27;20040;-62
2022/05/31 04:24:02;;;;;;;3.13;1.98;;;;;;;13.91;81.84;98762.81;5106026;28;20032;-62
2022/05/31 04:26:56;;;;;;;5.13;2.88;;;;;;;13.24;83.30;98760.25;5097538;28;20055;-62
2022/05/31 04:29:43;;;;;;;5.82;3.13;;;;;;;12.65;85.21;98760.41;5104840;28;20124;-62
2022/05/31 04:32:46;;;;;;;4.10;2.67;;;;;;;12.03;89.09;98750.97;5101541;28;20477;-61
2022/05/31 04:35:38;;;;;;;;;;;;;;;12.32;88.30;98752.41;5096224;28;20044;-61
2022/05/31 04:38:24;;;;;;;8.35;3.83;;;;;;;11.73;92.20;98748.84;5099986;28;19955;-63
2022/05/31 04:41:32;;;;;;;5.95;3.85;;;;;;;11.85;92.77;98747.91;5094784;28;20377;-63
2022/05/31 04:44:21;;;;;;;11.73;5.72;;;;;;;11.52;94.86;98749.47;5091742;28;20032;-62
2022/05/31 04:47:06;;;;;;;9.48;5.78;;;;;;;12.09;91.55;98756.75;5123448;27;20092;-64
2022/05/31 04:50:00;;;;;;;9.05;4.88;;;;;;;12.17;94.13;98752.59;5124714;27;20432;-62
2022/05/31 04:52:45;;;;;;;9.25;4.90;;;;;;;12.41;90.99;98756.94;5109561;28;20123;-61
2022/05/31 04:55:30;;;;;;;14.48;7.20;;;;;;;11.85;93.78;98763.66;5103163;28;20097;-63
2022/05/31 04:58:17;;;;;;;11.13;6.22;;;;;;;11.83;95.57;98761.16;5080946;28;20066;-62
2022/05/31 05:01:06;;;;;;;12.05;5.90;;;;;;;12.07;94.42;98765.56;5098860;28;20708;-63
2022/05/31 05:03:53;;;;;;;11.05;4.88;;;;;;;13.00;89.36;98762.09;5081627;28;20059;-64
2022/05/31 05:06:40;;;;;;;5.72;3.90;;;;;;;13.51;85.28;98761.66;5080919;28;20501;-64
2022/05/31 05:09:24;;;;;;;7.40;3.72;;;;;;;12.95;90.15;98766.88;5131267;27;20367;-65
2022/05/31 05:12:29;;;;;;;7.50;3.67;;;;;;;12.09;93.54;98760.22;5093998;28;20055;-66
2022/05/31 05:15:46;;;;;;;9.82;4.47;;;;;;;12.75;90.10;98766.63;5099864;28;20429;-64
2022/05/31 05:18:34;;;;;;;8.90;4.50;;;;;;;12.27;92.74;98767.66;5111618;28;20112;-64
2022/05/31 05:21:18;;;;;;;6.93;4.72;;;;;;;12.34;93.50;98771.47;5103285;28;20032;-63
2022/05/31 05:24:03;;;;;;;6.03;4.25;;;;;;;12.66;90.82;98775.22;5111987;28;20043;-64
2022/05/31 05:27:00;;;;;;;5.05;3.30;;;;;;;12.85;93.41;98772.00;5097863;27;20040;-64
2022/05/31 05:33:11;;;;;;;4.45;3.28;;;;;;;13.52;89.01;98779.97;5093179;28;20043;-64
2022/05/31 05:36:06;;;;;;;6.63;3.35;;;;;;;14.71;83.53;98777.28;5092382;28;20040;-64
2022/05/31 05:38:52;;;;;;;5.80;3.58;;;;;;;13.80;83.82;98787.41;5106237;28;20059;-63
2022/05/31 05:41:52;;;;;;;5.18;3.65;;;;;;;13.64;85.85;98786.00;5093829;28;20040;-63
2022/05/31 05:44:55;;;;;;;5.03;3.75;;;;;;;13.58;86.05;98786.50;5112912;28;20039;-64
2022/05/31 05:47:40;;;;;;;7.57;3.92;;;;;;;13.67;86.09;98782.31;5096548;28;20073;-65
2022/05/31 05:50:25;;;;;;;5.60;3.95;;;;;;;13.54;85.30;98790.34;5093233;28;20050;-66
2022/05/31 05:53:10;;;;;;;7.30;4.78;;;;;;;13.14;88.34;98791.69;5093665;28;20052;-65
2022/05/31 05:56:14;;;;;;;9.68;5.07;;;;;;;13.75;85.53;98793.03;5110670;28;20071;-65
2022/05/31 05:59:20;;;;;;;6.15;4.63;;;;;;;13.73;86.25;98791.47;5098439;28;20035;-66
2022/05/31 06:02:32;;;;;;;15.60;6.53;;;;;;;15.35;80.85;98785.88;5101850;28;20122;-57
2022/05/31 06:05:35;;;;;;;10.98;7.00;;;;;;;14.53;79.81;98788.44;5097503;28;20044;-64
2022/05/31 06:08:32;;;;;;;10.25;5.93;;;;;;;14.64;83.73;98783.09;5080645;28;20039;-63
2022/05/31 06:11:22;;;;;;;9.32;6.03;;;;;;;14.94;81.07;98787.69;5121264;27;20047;-64
2022/05/31 06:14:13;;;;;;;10.00;6.68;;;;;;;14.81;79.34;98793.19;5102392;28;20047;-64
2022/05/31 06:17:04;;;;;;;7.63;4.72;;;;;;;14.58;83.54;98788.91;5100644;28;20040;-63
2022/05/31 06:19:51;;;;;;;;;;;;;;;15.39;80.71;98794.38;5090307;28;20425;-65
2022/05/31 06:22:39;;;;;;;8.20;5.25;;;;;;;15.09;78.28;98789.00;5087656;28;19916;-63
2022/05/31 06:25:37;;;;;;;5.35;4.10;;;;;;;14.64;80.40;98791.00;5101330;28;20055;-63
2022/05/31 06:28:47;;;;;;;6.30;4.00;;;;;;;15.07;80.73;98796.22;5086838;28;20046;-65
2022/05/31 06:31:32;;;;;;;5.53;3.88;;;;;;;15.16;77.45;98799.88;5097762;28;20363;-65
2022/05/31 06:34:19;;;;;;;5.18;4.13;;;;;;;14.71;79.95;98804.50;5098535;28;20035;-66
2022/05/31 06:37:35;;;;;;;8.38;4.45;;;;;;;14.84;79.25;98804.31;5091555;28;20043;-65
2022/05/31 06:40:19;;;;;;;7.60;4.57;;;;;;;15.79;77.76;98807.59;5076465;28;20398;-48
2022/05/31 06:43:27;;;;;;;5.35;3.92;;;;;;;15.83;74.94;98811.66;5105431;28;20455;-64
2022/05/31 06:46:30;;;;;;;9.55;4.72;;;;;;;15.53;77.66;98814.25;5090266;28;20044;-65
2022/05/31 06:49:35;;;;;;;6.25;3.92;;;;;;;16.54;71.61;98803.53;5096403;28;20097;-61
2022/05/31 06:59:45;;;;;;;5.47;4.00;;;;;;;17.18;68.69;98805.56;5087918;28;20044;-66
2022/05/31 07:02:32;;;;;;;4.20;3.40;;;;;;;16.50;70.13;98803.84;5094188;28;20120;-63
2022/05/31 07:05:19;;;;;;;6.13;3.33;;;;;;;16.31;70.57;98799.41;5093413;28;20468;-64
2022/05/31 07:08:04;;;;;;;4.53;2.88;;;;;;;16.99;70.67;98796.69;5083985;28;20039;-63
2022/05/31 07:11:08;;;;;;;4.63;2.97;;;;;;;17.42;67.74;98798.88;5099579;28;20040;-64
2022/05/31 07:14:11;;;;;;;8.65;3.88;;;;;;;17.81;66.03;98801.28;5095975;28;20047;-64
2022/05/31 07:17:34;;;;;;;4.75;3.47;;;;;;;17.71;65.25;98811.94;5070764;28;20040;-64
2022/05/31 07:20:19;;;;;;;6.53;4.35;;;;;;;17.08;67.34;98805.59;5060704;28;20053;-63
2022/05/31 07:23:04;;;;;;;6.22;3.67;;;;;;;17.60;66.14;98809.50;5093260;28;20056;-65
2022/05/31 07:25:53;;;;;;;4.15;3.47;;;;;;;17.91;64.23;98814.44;5103584;28;20032;-64
2022/05/31 07:28:43;;;;;;;7.68;4.53;;;;;;;17.23;67.64;98805.97;5099539;28;20055;-63
2022/05/31 07:31:28;;;;;;;8.07;4.50;;;;;;;17.85;66.47;98807.09;5094253;28;20040;-64
2022/05/31 07:34:23;;;;;;;5.55;3.90;;;;;;;18.34;63.71;98809.34;5102288;28;20072;-66
2022/05/31 07:37:08;;;;;;;5.78;4.18;;;;;;;18.27;63.90;98803.00;5103003;28;20047;-64
2022/05/31 07:39:54;;;;;;;4.93;3.80;;;;;;;17.59;65.79;98798.06;5101937;28;20036;-63
2022/05/31 07:42:39;;;;;;;5.00;3.67;;;;;;;17.94;65.81;98794.75;5077828;28;20063;-66
2022/05/31 07:45:27;;;;;;;4.55;3.65;;;;;;;17.65;66.30;98794.00;5098070;28;20040;-65
2022/05/31 07:48:13;;;;;;;5.28;3.05;;;;;;;18.09;63.61;98795.03;5121299;27;20036;-64
2022/05/31 07:50:59;;;;;;;3.80;2.45;;;;;;;18.64;62.18;98784.34;5089845;28;20032;-64
2022/05/31 07:54:06;;;;;;;4.63;2.83;;;;;;;19.42;59.89;98779.03;5099055;28;20122;-64
2022/05/31 07:58:30;;;;;;;4.72;2.00;;;;;;;18.84;59.80;98783.13;5094165;28;20035;-64
2022/05/31 08:00:34;;;;;;;2.47;1.83;;;;;;;18.66;61.80;98791.16;5096534;28;20473;-67
2022/05/31 08:03:20;;;;;;;3.33;1.70;;;;;;;18.55;61.18;98784.31;5099986;28;20130;-67
2022/05/31 08:06:08;;;;;;;2.08;1.60;;;;;;;18.08;61.92;98788.91;5086160;28;20056;-66
2022/05/31 08:08:52;;;;;;;6.68;2.30;;;;;;;18.26;61.86;98788.09;5097975;28;20104;-65
2022/05/31 08:11:39;;;;;;;3.47;1.95;;;;;;;18.75;60.74;98784.09;5086921;28;20052;-65
2022/05/31 08:14:24;;;;;;;4.47;1.92;;;;;;;19.47;58.74;98783.88;5108131;28;20469;-67
2022/05/31 08:17:10;;;;;;;5.63;1.80;;;;;;;19.81;57.88;98782.91;5101173;28;20063;-64
2022/05/31 08:19:56;;;;;;;3.63;2.08;;;;;;;19.35;59.41;98770.88;5118886;27;20040;-58
2022/05/31 08:22:40;;;;;;;3.55;2.08;;;;;;;19.65;57.90;98783.75;5106655;28;20032;-67
2022/05/31 08:25:25;;;;;;;3.45;2.10;;;;;;;19.50;58.17;98781.72;5113175;28;20046;-64
2022/05/31 08:28:10;;;;;;;2.47;1.70;;;;;;;19.74;57.64;98779.25;5102757;28;20116;-64
2022/05/31 08:30:59;;;;;;;2.50;1.65;;;;;;;19.55;57.41;98779.38;5099851;28;20063;-70
2022/05/31 08:33:45;;;;;;;4.20;1.70;;;;;;;19.95;56.50;98778.75;5100814;28;20040;-64
2022/05/31 08:36:29;;;;;;;3.20;1.77;;;;;;;20.62;54.72;98768.91;5105941;28;20039;-68
2022/05/31 08:39:14;;;;;;;3.15;1.60;;;;;;;20.33;55.17;98772.97;5110305;28;20047;-68
2022/05/31 08:42:09;;;;;;;3.85;1.50;;;;;;;20.86;53.26;98763.69;5096804;28;20113;-69
2022/05/31 08:45:18;;;;;;;6.90;1.80;;;;;;;20.80;52.59;98779.34;5099317;28;20071;-69
2022/05/31 08:48:31;;;;;;;2.53;1.50;;;;;;;20.26;55.48;98759.50;5100060;28;20040;-68
2022/05/31 08:58:01;;;;;;;4.35;2.60;;;;;;;21.12;52.65;98771.41;5099596;28;20116;-69
2022/05/31 09:00:57;;;;;;;2.55;1.33;;;;;;;21.50;51.43;98757.38;5105901;28;20076;-69
2022/05/31 09:03:48;;;;;;;2.33;1.30;;;;;;;21.53;50.78;98751.69;5106491;28;20106;-67
2022/05/31 09:06:54;;;;;;;2.37;1.27;;;;;;;21.45;50.64;98754.41;5106963;28;20054;-68
2022/05/31 09:09:46;;;;;;;1.75;1.23;;;;;;;21.07;51.89;98747.13;5105580;28;20043;-68
2022/05/31 09:12:34;;;;;;;2.80;1.10;;;;;;;21.16;50.87;98748.75;5107946;28;20089;-69
2022/05/31 09:15:28;;;;;;;1.77;1.23;;;;;;;21.53;50.66;98735.69;5093782;28;20036;-65
2022/05/31 09:18:31;;;;;;;2.13;1.38;;;;;;;21.52;50.53;98749.19;5098704;28;20040;-66
2022/05/31 09:21:27;;;;;;;2.38;1.13;;;;;;;22.18;49.30;98752.38;5105950;28;20478;-69
2022/05/31 09:24:23;;;;;;;3.92;1.00;;;;;;;22.97;46.55;98739.50;5081491;27;20039;-68
2022/05/31 09:27:13;;;;;;;1.70;0.88;;;;;;;22.39;48.07;98749.00;5104213;28;20044;-69
2022/05/31 09:30:06;;;;;;;3.58;1.30;;;;;;;22.03;48.88;98743.31;5104918;28;20039;-70
2022/05/31 09:33:23;;;;;;;2.00;1.10;;;;;;;21.62;49.59;98754.31;5100635;28;20039;-70
2022/05/31 09:36:47;;;;;;;2.58;1.08;;;;;;;22.50;48.18;98743.22;5094792;28;20432;-69
2022/05/31 09:39:53;;;;;;;1.80;1.00;;;;;;;22.43;47.72;98738.78;5070675;28;20491;-70
2022/05/31 09:42:53;;;;;;;1.60;0.90;;;;;;;22.33;48.38;98739.03;5061343;28;20534;-70
2022/05/31 09:45:48;;;;;;;2.58;1.10;;;;;;;23.08;45.96;98733.69;5100964;28;20031;-70
2022/05/31 09:48:33;;;;;;;1.27;0.90;;;;;;;23.42;45.44;98731.41;5100097;28;20064;-70
2022/05/31 09:51:20;;;;;;;4.65;0.90;;;;;;;23.50;45.07;98733.94;5091594;28;20043;-69
2022/05/31 09:57:32;;;;;;;4.00;0.70;;;;;;;22.64;46.11;98733.56;5105933;28;20043;-70
2022/05/31 10:00:21;;;;;;;1.45;0.85;;;;;;;22.23;47.45;98728.66;5130086;27;20096;-68
2022/05/31 10:03:12;;;;;;;2.42;1.10;;;;;;;23.14;45.63;98722.25;5109099;28;20047;-68
2022/05/31 10:06:12;;;;;;;2.60;0.70;;;;;;;22.80;46.35;98723.69;5092565;28;20187;-68
2022/05/31 10:09:14;;;;;;;2.05;0.98;;;;;;;22.92;45.30;98733.91;5110679;28;20475;-69
2022/05/31 10:12:10;;;;;;;1.75;0.85;;;;;;;23.03;45.52;98721.94;5094051;28;20032;-69
2022/05/31 10:14:55;;;;;;;2.05;0.80;;;;;;;23.34;44.82;98721.63;5092160;28;20043;-68
2022/05/31 10:17:44;;;;;;;2.17;1.00;;;;;;;23.09;46.04;98719.34;5111577;28;20047;-69
2022/05/31 10:20:35;;;;;;;1.40;1.00;;;;;;;23.72;44.24;98717.06;5099187;28;20043;-69
2022/05/31 10:23:23;;;;;;;2.33;0.80;;;;;;;23.75;43.85;98733.56;5103575;28;20038;-69
2022/05/31 10:26:33;;;;;;;3.80;0.77;;;;;;;24.12;43.49;98708.56;5086865;28;20172;-68
2022/05/31 10:29:44;;;;;;;1.50;0.80;;;;;;;23.74;44.35;98728.41;5102747;28;20036;-67
2022/05/31 10:32:56;;;;;;;1.23;0.70;;;;;;;23.98;42.78;98712.97;5101561;28;20077;-68
2022/05/31 10:35:43;;;;;;;;;;;;;;;23.23;45.05;98714.13;5103929;28;20039;-72
2022/05/31 10:38:33;;;;;;;1.13;0.70;;;;;;;24.42;42.79;98719.03;5102764;28;19945;-73
2022/05/31 10:41:28;;;;;;;1.67;0.75;;;;;;;23.11;45.10;98713.81;5101321;28;20047;-73
2022/05/31 10:44:35;;;;;;;0.85;0.60;;;;;;;23.57;44.26;98722.50;5100573;28;20449;-71
2022/05/31 10:47:24;;;;;;;1.13;0.60;;;;;;;24.17;41.85;98726.72;5091345;28;20043;-70
2022/05/31 10:50:10;;;;;;;1.42;0.80;;;;;;;24.87;40.87;98712.47;5084932;28;20039;-70
2022/05/31 10:53:19;;;;;;;4.07;0.95;;;;;;;24.45;40.82;98726.69;5091077;28;20052;-69
2022/05/31 10:56:32;;;;;;;3.13;0.60;;;;;;;23.62;42.51;98718.25;5099388;28;20040;-71
2022/05/31 10:59:41;;;;;;;2.45;0.68;;;;;;;24.65;41.33;98707.22;5091849;28;20093;-71
2022/05/31 11:02:46;;;;;;;0.80;0.45;;;;;;;24.25;40.71;98713.19;5106535;28;20043;-69
2022/05/31 11:05:50;;;;;;;2.17;0.60;;;;;;;23.87;41.99;98696.44;5090713;28;20040;-69
2022/05/31 11:12:20;;;;;;;0.70;0.40;;;;;;;24.24;40.42;98692.78;5106121;28;20050;-68
2022/05/31 11:15:29;;;;;;;3.97;0.60;;;;;;;24.43;39.86;98688.56;5062404;28;20119;-67
2022/05/31 11:18:38;;;;;;;1.23;0.60;;;;;;;24.89;38.40;98693.53;5104609;28;20039;-67
2022/05/31 11:21:46;;;;;;;3.17;0.60;;;;;;;23.90;40.37;98697.06;5104544;28;20047;-67
2022/05/31 11:24:37;;;;;;;2.70;0.45;;;;;;;24.24;40.11;98693.63;5095622;28;20043;-68
2022/05/31 11:27:49;;;;;;;0.82;0.57;;;;;;;24.61;40.06;98673.84;5105344;28;20170;-68
2022/05/31 11:31:07;;;;;;;2.78;0.70;;;;;;;24.58;39.12;98675.06;5107188;28;20161;-67
2022/05/31 11:34:11;;;;;;;1.60;0.70;;;;;;;24.67;39.37;98675.72;5104204;28;20036;-67
2022/05/31 11:37:29;;;;;;;0.88;0.50;;;;;;;24.67;38.58;98667.69;5104841;28;20047;-66
2022/05/31 11:40:25;;;;;;;0.57;0.43;;;;;;;24.56;38.99;98657.56;5095167;28;20502;-67
2022/05/31 11:43:43;;;;;;;1.45;0.50;;;;;;;25.24;38.39;98666.63;5102520;28;20044;-60
2022/05/31 11:46:31;;;;;;;3.53;0.50;;;;;;;26.19;35.81;98667.47;5100439;28;20036;-66
2022/05/31 11:49:27;;;;;;;1.20;0.47;;;;;;;26.53;35.84;98662.00;5102346;28;20047;-68
2022/05/31 11:52:41;;;;;;;1.00;0.60;;;;;;;25.00;36.93;98676.91;5093903;28;20039;-66
2022/05/31 11:55:44;;;;;;;1.98;0.45;;;;;;;24.72;37.12;98677.81;5110622;28;20474;-67
2022/05/31 11:58:36;;;;;;;1.45;0.47;;;;;;;23.58;40.11;98668.88;5105591;28;20080;-67
2022/05/31 12:02:02;;;;;;;0.82;0.40;;;;;;;25.29;36.90;98671.38;5093485;28;20039;-69
2022/05/31 12:04:55;;;;;;;0.50;0.40;;;;;;;26.12;35.73;98665.81;5083963;28;20078;-66
2022/05/31 12:08:07;;;;;;;2.92;0.50;;;;;;;25.18;37.22;98673.63;5113487;27;20093;-65
2022/05/31 12:10:55;;;;;;;1.25;0.45;;;;;;;25.71;36.19;98657.81;5099596;28;20035;-66
2022/05/31 12:13:47;;;;;;;1.33;0.35;;;;;;;26.48;34.92;98648.38;5112248;28;20378;-66
2022/05/31 12:16:32;;;;;;;0.95;0.50;;;;;;;25.87;36.16;98659.25;5114397;28;20099;-66
2022/05/31 12:19:40;;;;;;;0.63;0.30;;;;;;;25.19;37.73;98655.69;5110606;28;20035;-66
2022/05/31 12:22:28;;;;;;;0.60;0.38;;;;;;;25.78;36.13;98663.19;5102067;28;20084;-67
2022/05/31 12:25:43;;;;;;;1.17;0.50;;;;;;;25.95;35.10;98660.91;5114588;28;20085;-65
2022/05/31 12:28:38;;;;;;;0.88;0.40;;;;;;;25.75;35.53;98642.97;5112614;28;20047;-66
2022/05/31 12:31:26;;;;;;;1.73;0.40;;;;;;;26.10;35.64;98652.59;5088306;28;20040;-66
2022/05/31 12:34:21;;;;;;;0.43;0.20;;;;;;;26.11;35.01;98645.38;5100627;28;20059;-67
2022/05/31 12:37:12;;;;;;;1.27;0.20;;;;;;;24.77;37.58;98643.22;5127077;27;20077;-66
2022/05/31 12:40:37;;;;;;;1.77;0.93;;;;;;;25.23;37.09;98646.25;5113299;28;20719;-65
2022/05/31 12:43:47;;;;;;;2.60;0.50;;;;;;;25.72;36.13;98635.34;5104173;28;20039;-65
2022/05/31 12:46:36;;;;;;;0.57;0.45;;;;;;;25.50;35.67;98643.56;5100538;28;20429;-66
2022/05/31 12:49:27;;;;;;;0.70;0.30;;;;;;;25.91;35.13;98639.03;5114260;28;20036;-66
2022/05/31 12:55:26;;;;;;;2.38;0.38;;;;;;;26.32;34.85;98637.09;5099814;28;20395;-67
2022/05/31 12:58:36;;;;;;;0.95;0.30;;;;;;;26.36;33.87;98621.38;5108995;28;20068;-65
2022/05/31 13:01:24;;;;;;;1.10;0.38;;;;;;;26.71;33.59;98624.72;5107947;28;20171;-66
2022/05/31 13:04:28;;;;;;;2.05;0.70;;;;;;;27.07;32.02;98634.06;5096567;28;20116;-66
2022/05/31 13:07:19;;;;;;;1.15;0.40;;;;;;;27.92;31.13;98609.59;5105633;28;20040;-67
2022/05/31 13:19:34;;;;;;;0.28;0.20;;;;;;;27.92;30.94;98614.97;5101954;28;20047;-66
2022/05/31 13:20:23;;;;;;;1.75;0.40;;;;;;;26.73;32.30;98610.06;5112278;28;20036;-66
2022/05/31 13:23:24;;;;;;;0.70;0.40;;;;;;;26.74;31.80;98600.97;5105428;28;20067;-67
2022/05/31 13:26:23;;;;;;;0.75;0.40;;;;;;;27.02;31.43;98613.22;5113184;28;20039;-66
2022/05/31 13:29:09;;;;;;;3.85;0.47;;;;;;;26.56;31.68;98597.13;5107582;28;20141;-66
2022/05/31 13:31:57;;;;;;;0.60;0.32;;;;;;;26.57;32.24;98590.72;5111613;28;20063;-65
2022/05/31 13:34:49;;;;;;;0.95;0.30;;;;;;;27.32;31.64;98602.88;5091469;28;20040;-65
2022/05/31 13:37:47;;;;;;;0.30;0.20;;;;;;;26.39;32.02;98590.63;5102095;28;20036;-66
2022/05/31 13:40:44;;;;;;;3.60;0.40;;;;;;;26.13;32.77;98589.66;5098293;28;20487;-67
2022/05/31 13:43:39;;;;;;;0.77;0.40;;;;;;;26.40;31.76;98574.28;5098593;28;20060;-66
2022/05/31 13:46:30;;;;;;;1.88;0.40;;;;;;;26.30;32.51;98574.72;5109620;27;20451;-67
2022/05/31 13:49:25;;;;;;;0.68;0.38;;;;;;;26.20;32.68;98566.28;5099316;28;20059;-65
2022/05/31 13:52:18;;;;;;;0.73;0.40;;;;;;;25.33;33.90;98586.88;5106205;28;20103;-65
2022/05/31 13:55:25;;;;;;;0.82;0.38;;;;;;;25.67;33.69;98563.53;5105157;28;20077;-65
2022/05/31 13:58:15;;;;;;;1.17;0.40;;;;;;;25.56;34.10;98574.88;5107580;28;20063;-66
2022/05/31 14:01:03;;;;;;;1.30;0.50;;;;;;;25.68;33.88;98562.53;5110467;28;20048;-67
2022/05/31 14:03:50;;;;;;;1.13;0.50;;;;;;;26.14;32.78;98551.03;5102952;28;20036;-67
2022/05/31 14:06:35;;;;;;;0.90;0.60;;;;;;;25.26;33.50;98564.59;5106449;28;20093;-66
2022/05/31 14:09:27;;;;;;;2.13;0.43;;;;;;;26.07;33.26;98545.69;5092869;28;20040;-65
2022/05/31 14:12:17;;;;;;;0.65;0.40;;;;;;;25.63;33.64;98553.44;5121226;27;20569;-65
2022/05/31 14:15:02;;;;;;;1.80;0.60;;;;;;;25.83;33.28;98535.47;5102646;28;20093;-66